This is the latest recevied weather packets stored in our database for station/object KQ4HDO. If no packets are shown the sender has not sent any weather packets the latest 10 day(s).
| Time | Temp. | Humidity | Pressure | Rain* | Wind** | Luminosity | Snow |
|---|---|---|---|---|---|---|---|
| 1777021803 | 15.56° C | 91% | 1005 hPa | 0.25 mm | - | - | - |
| 1777021503 | 15.56° C | 91% | 1004.9 hPa | 0 mm | - | - | - |
| 1777017437 | 16.11° C | 87% | 1006.5 hPa | 1.27 mm | - | - | - |
| 1777016838 | 16.11° C | 87% | 1006.7 hPa | 1.27 mm | - | - | - |
| 1777014903 | 21.11° C | 66% | 1007.1 hPa | 0 mm | - | - | - |
| 1777013403 | 21.67° C | 70% | 1005.1 hPa | 0 mm | - | - | - |
| 1777012803 | 21.67° C | 71% | 1005.2 hPa | 0 mm | - | - | - |
| 1777011003 | 21.67° C | 71% | 1006 hPa | 0 mm | - | - | - |
| 1777010703 | 21.67° C | 71% | 1006.2 hPa | 0 mm | - | - | - |
| 1777009503 | 21.67° C | 71% | 1005.8 hPa | 0 mm | - | - | - |
| 1777009337 | 21.67° C | 70% | 1005.7 hPa | 0 mm | - | - | - |
| 1777007703 | 21.67° C | 69% | 1005.5 hPa | 0 mm | - | - | - |
| 1777007403 | 21.67° C | 69% | 1005.6 hPa | 0 mm | - | - | - |
| 1776998103 | 22.78° C | 64% | 1005.9 hPa | 0 mm | - | - | - |
| 1776997503 | 22.78° C | 64% | 1005.9 hPa | 0 mm | - | - | - |
| 1776997203 | 22.78° C | 63% | 1005.9 hPa | 0 mm | - | - | - |
| 1776996303 | 22.78° C | 64% | 1005.9 hPa | 0 mm | - | - | - |
| 1776996003 | 22.78° C | 64% | 1005.8 hPa | 0 mm | - | - | - |
| 1776994937 | 22.78° C | 63% | 1005.6 hPa | 0 mm | - | - | - |
| 1776993903 | 22.78° C | 63% | 1005.3 hPa | 0 mm | - | - | - |
| 1776993303 | 23.33° C | 62% | 1005.1 hPa | 0 mm | - | - | - |
| 1776992703 | 23.33° C | 61% | 1004.6 hPa | 0 mm | - | - | - |
| 1776992403 | 23.33° C | 61% | 1004.5 hPa | 0 mm | - | - | - |
| 1776992103 | 23.33° C | 61% | 1004.3 hPa | 0 mm | - | - | - |
| 1776991803 | 23.33° C | 60% | 1004.4 hPa | 0 mm | - | - | - |
* Rain latest hour (hover to see other rain measurements)
** Current wind speed in m/s (hover to see current wind gust speed)